PUA2539 SPJC-SUMU
Flight info
| Callsign | PUA2539 |
|---|---|
| Flight time | N/A |
| Altitude | 35000 |
| Route | SCO UL550 LOA UM789 JUJ UT672 ASODO/N0446F370 UT672 ERE UW8 PAR UL417 NIMBO |
| Aircraft | A320/M-SDE3FGHIRWY/LB1 |
Departure
| Time | 2026-05-07 17:01 |
|---|---|
| Airport | Jorge Chávez International Airport (SPJC) |
Arrival
| Time | N/A |
|---|---|
| Airport | Carrasco General Cesáreo L. Berisso International Airport (SUMU) |
| Time | Latitude | Longitude | Altitude | Speed | Heading |
|---|---|---|---|---|---|
| 2026-05-07 16:27 | -12.02732 | -77.11484 | 81 ft | 0 kts | 244° |
| 2026-05-07 16:50 | -12.02727 | -77.11471 | 85 ft | 3 kts | 249° |
| 2026-05-07 16:51 | -12.02721 | -77.11452 | 86 ft | 3 kts | 266° |
| 2026-05-07 16:51 | -12.02722 | -77.11433 | 83 ft | 3 kts | 297° |
| 2026-05-07 16:51 | -12.02732 | -77.11420 | 87 ft | 2 kts | 334° |
| 2026-05-07 16:51 | -12.02737 | -77.11418 | 87 ft | 0 kts | 334° |
| 2026-05-07 16:54 | -12.02736 | -77.11418 | 87 ft | 2 kts | 334° |
| 2026-05-07 16:54 | -12.02697 | -77.11436 | 85 ft | 11 kts | 336° |
| 2026-05-07 16:54 | -12.02653 | -77.11426 | 83 ft | 10 kts | 46° |
| 2026-05-07 16:54 | -12.02566 | -77.11422 | 83 ft | 12 kts | 334° |
| 2026-05-07 16:55 | -12.02510 | -77.11449 | 86 ft | 14 kts | 335° |
| 2026-05-07 16:55 | -12.02413 | -77.11497 | 81 ft | 17 kts | 334° |
| 2026-05-07 16:55 | -12.02297 | -77.11553 | 73 ft | 20 kts | 334° |
| 2026-05-07 16:55 | -12.02126 | -77.11638 | 67 ft | 22 kts | 334° |
| 2026-05-07 16:56 | -12.02041 | -77.11680 | 71 ft | 18 kts | 334° |
| 2026-05-07 16:56 | -12.01928 | -77.11735 | 66 ft | 18 kts | 334° |
| 2026-05-07 16:56 | -12.01707 | -77.11845 | 63 ft | 18 kts | 333° |
| 2026-05-07 16:57 | -12.01599 | -77.11901 | 62 ft | 17 kts | 333° |
| 2026-05-07 16:57 | -12.01497 | -77.11953 | 61 ft | 16 kts | 334° |
| 2026-05-07 16:57 | -12.01398 | -77.12002 | 57 ft | 16 kts | 334° |
| 2026-05-07 16:57 | -12.01304 | -77.12050 | 58 ft | 15 kts | 327° |
| 2026-05-07 16:58 | -12.01238 | -77.12127 | 56 ft | 15 kts | 306° |
| 2026-05-07 16:58 | -12.01150 | -77.12191 | 55 ft | 16 kts | 333° |
| 2026-05-07 16:58 | -12.01053 | -77.12238 | 53 ft | 15 kts | 335° |
| 2026-05-07 16:58 | -12.00964 | -77.12282 | 51 ft | 14 kts | 334° |
| 2026-05-07 16:59 | -12.00889 | -77.12314 | 51 ft | 10 kts | 353° |
| 2026-05-07 16:59 | -12.00845 | -77.12280 | 52 ft | 7 kts | 60° |
| 2026-05-07 16:59 | -12.00820 | -77.12229 | 52 ft | 11 kts | 63° |
| 2026-05-07 16:59 | -12.00786 | -77.12160 | 51 ft | 10 kts | 63° |
| 2026-05-07 17:00 | -12.00804 | -77.12115 | 52 ft | 7 kts | 152° |
| 2026-05-07 17:00 | -12.00878 | -77.12078 | 52 ft | 20 kts | 155° |
| 2026-05-07 17:00 | -12.01149 | -77.11945 | 58 ft | 75 kts | 154° |
| 2026-05-07 17:00 | -12.01801 | -77.11623 | 62 ft | 132 kts | 154° |
| 2026-05-07 17:01 | -12.02762 | -77.11149 | 153 ft | 168 kts | 156° |
| 2026-05-07 17:01 | -12.03811 | -77.10633 | 766 ft | 167 kts | 157° |
| 2026-05-07 17:01 | -12.04860 | -77.10119 | 1518 ft | 167 kts | 157° |
| 2026-05-07 17:01 | -12.05900 | -77.09595 | 2114 ft | 168 kts | 155° |
| 2026-05-07 17:02 | -12.07007 | -77.09045 | 2369 ft | 187 kts | 155° |
| 2026-05-07 17:02 | -12.08255 | -77.08435 | 2548 ft | 210 kts | 154° |
| 2026-05-07 17:02 | -12.09653 | -77.07750 | 2741 ft | 235 kts | 154° |
| 2026-05-07 17:02 | -12.11195 | -77.06991 | 3135 ft | 254 kts | 154° |
| 2026-05-07 17:03 | -12.12829 | -77.06213 | 3772 ft | 263 kts | 160° |
| 2026-05-07 17:03 | -12.14635 | -77.06070 | 4494 ft | 267 kts | 194° |
| 2026-05-07 17:03 | -12.16287 | -77.06938 | 5201 ft | 271 kts | 218° |
| 2026-05-07 17:03 | -12.17685 | -77.08258 | 5802 ft | 277 kts | 225° |
| 2026-05-07 17:04 | -12.18984 | -77.09706 | 5960 ft | 276 kts | 227° |
| 2026-05-07 17:04 | -12.20272 | -77.11160 | 6002 ft | 276 kts | 226° |
| 2026-05-07 17:04 | -12.21593 | -77.12583 | 6003 ft | 275 kts | 225° |
| 2026-05-07 17:04 | -12.22952 | -77.13966 | 6004 ft | 276 kts | 223° |
| 2026-05-07 17:05 | -12.24339 | -77.15320 | 6004 ft | 275 kts | 222° |
| 2026-05-07 17:05 | -12.25740 | -77.16651 | 6003 ft | 275 kts | 221° |
| 2026-05-07 17:05 | -12.27153 | -77.17970 | 6002 ft | 274 kts | 219° |
| 2026-05-07 17:05 | -12.28738 | -77.19024 | 6001 ft | 272 kts | 202° |
| 2026-05-07 17:06 | -12.30567 | -77.19512 | 6069 ft | 277 kts | 184° |
| 2026-05-07 17:06 | -12.32489 | -77.19382 | 6765 ft | 277 kts | 168° |
| 2026-05-07 17:06 | -12.34383 | -77.18980 | 7474 ft | 279 kts | 168° |
| 2026-05-07 17:06 | -12.36297 | -77.18576 | 8116 ft | 282 kts | 168° |
| 2026-05-07 17:07 | -12.38237 | -77.18165 | 8737 ft | 287 kts | 168° |
| 2026-05-07 17:07 | -12.40203 | -77.17748 | 9358 ft | 290 kts | 168° |
| 2026-05-07 17:07 | -12.42192 | -77.17322 | 9969 ft | 294 kts | 168° |
| 2026-05-07 17:07 | -12.44235 | -77.16884 | 10251 ft | 310 kts | 168° |
| 2026-05-07 17:08 | -12.46412 | -77.16415 | 10379 ft | 330 kts | 167° |
| 2026-05-07 17:08 | -12.48716 | -77.15919 | 10654 ft | 343 kts | 167° |
| 2026-05-07 17:08 | -12.51065 | -77.15412 | 11157 ft | 347 kts | 167° |
| 2026-05-07 17:08 | -12.53442 | -77.14900 | 11700 ft | 350 kts | 167° |
| 2026-05-07 17:09 | -12.55841 | -77.14385 | 12245 ft | 353 kts | 167° |
| 2026-05-07 17:09 | -12.58252 | -77.13868 | 12802 ft | 355 kts | 167° |
| 2026-05-07 17:09 | -12.60683 | -77.13346 | 13323 ft | 358 kts | 167° |
| 2026-05-07 17:09 | -12.63131 | -77.12821 | 13843 ft | 361 kts | 167° |
| 2026-05-07 17:10 | -12.65571 | -77.12298 | 14291 ft | 364 kts | 166° |
| 2026-05-07 17:10 | -12.68059 | -77.11762 | 14754 ft | 366 kts | 166° |
| 2026-05-07 17:10 | -12.70560 | -77.11224 | 15200 ft | 369 kts | 167° |
| 2026-05-07 17:10 | -12.73082 | -77.10683 | 15662 ft | 371 kts | 167° |
| 2026-05-07 17:11 | -12.75620 | -77.10136 | 16111 ft | 374 kts | 167° |
| 2026-05-07 17:11 | -12.78173 | -77.09585 | 16559 ft | 376 kts | 167° |
| 2026-05-07 17:11 | -12.80739 | -77.09033 | 16998 ft | 378 kts | 167° |
| 2026-05-07 17:11 | -12.83326 | -77.08476 | 17446 ft | 380 kts | 167° |
| 2026-05-07 17:12 | -12.85926 | -77.07915 | 17924 ft | 382 kts | 166° |
| 2026-05-07 17:12 | -12.88531 | -77.07353 | 18382 ft | 383 kts | 166° |
| 2026-05-07 17:12 | -12.91147 | -77.06787 | 18769 ft | 385 kts | 167° |
| 2026-05-07 17:12 | -12.93783 | -77.06216 | 19076 ft | 390 kts | 167° |
| 2026-05-07 17:13 | -12.96444 | -77.05641 | 19430 ft | 392 kts | 167° |
| 2026-05-07 17:13 | -12.99112 | -77.05066 | 19891 ft | 392 kts | 167° |
| 2026-05-07 17:13 | -13.01788 | -77.04489 | 20328 ft | 393 kts | 167° |
| 2026-05-07 17:13 | -13.04449 | -77.03796 | 20667 ft | 395 kts | 159° |
| 2026-05-07 17:14 | -13.06940 | -77.02610 | 21096 ft | 396 kts | 149° |
| 2026-05-07 17:14 | -13.09173 | -77.00943 | 21461 ft | 399 kts | 138° |
| 2026-05-07 17:14 | -13.11077 | -76.98853 | 21783 ft | 404 kts | 130° |
| 2026-05-07 17:14 | -13.12873 | -76.96632 | 22162 ft | 405 kts | 130° |
| 2026-05-07 17:15 | -13.14683 | -76.94403 | 22504 ft | 409 kts | 131° |
| 2026-05-07 17:15 | -13.16512 | -76.92159 | 22833 ft | 411 kts | 131° |
| 2026-05-07 17:15 | -13.18356 | -76.89894 | 23110 ft | 416 kts | 131° |
| 2026-05-07 17:15 | -13.20189 | -76.87639 | 23463 ft | 417 kts | 130° |
| 2026-05-07 17:16 | -13.22053 | -76.85344 | 23742 ft | 420 kts | 131° |
| 2026-05-07 17:16 | -13.23932 | -76.83032 | 23998 ft | 423 kts | 131° |
| 2026-05-07 17:16 | -13.25824 | -76.80702 | 24241 ft | 426 kts | 131° |
| 2026-05-07 17:16 | -13.27729 | -76.78353 | 24482 ft | 429 kts | 130° |
| 2026-05-07 17:17 | -13.29643 | -76.75991 | 24725 ft | 432 kts | 131° |
| 2026-05-07 17:17 | -13.31599 | -76.73582 | 24962 ft | 435 kts | 131° |
| 2026-05-07 17:17 | -13.33544 | -76.71183 | 25188 ft | 438 kts | 131° |
| 2026-05-07 17:17 | -13.35497 | -76.68770 | 25420 ft | 441 kts | 131° |
| 2026-05-07 17:18 | -13.37463 | -76.66341 | 25643 ft | 444 kts | 130° |
| 2026-05-07 17:18 | -13.39441 | -76.63899 | 25874 ft | 446 kts | 131° |
| 2026-05-07 17:18 | -13.41430 | -76.61445 | 26089 ft | 449 kts | 130° |
| 2026-05-07 17:18 | -13.43430 | -76.58979 | 26317 ft | 451 kts | 130° |
| 2026-05-07 17:19 | -13.45442 | -76.56496 | 26542 ft | 453 kts | 130° |
| 2026-05-07 17:19 | -13.47463 | -76.53994 | 26762 ft | 456 kts | 130° |
| 2026-05-07 17:19 | -13.49489 | -76.51482 | 26977 ft | 458 kts | 130° |
| 2026-05-07 17:19 | -13.51531 | -76.48951 | 27158 ft | 461 kts | 130° |
| 2026-05-07 17:20 | -13.53585 | -76.46410 | 27380 ft | 463 kts | 130° |
| 2026-05-07 17:20 | -13.55646 | -76.43859 | 27584 ft | 465 kts | 130° |
| 2026-05-07 17:20 | -13.57720 | -76.41293 | 27786 ft | 468 kts | 130° |
| 2026-05-07 17:20 | -13.59804 | -76.38714 | 27985 ft | 470 kts | 130° |
| 2026-05-07 17:21 | -13.61902 | -76.36116 | 28181 ft | 472 kts | 130° |
| 2026-05-07 17:21 | -13.64003 | -76.33513 | 28372 ft | 475 kts | 130° |
| 2026-05-07 17:21 | -13.66115 | -76.30892 | 28561 ft | 477 kts | 130° |
| 2026-05-07 17:21 | -13.68235 | -76.28262 | 28745 ft | 479 kts | 130° |
| 2026-05-07 17:22 | -13.70366 | -76.25619 | 28922 ft | 481 kts | 130° |
| 2026-05-07 17:22 | -13.72508 | -76.22974 | 29099 ft | 483 kts | 132° |
| 2026-05-07 17:22 | -13.74876 | -76.20526 | 29269 ft | 484 kts | 140° |
| 2026-05-07 17:22 | -13.77521 | -76.18373 | 29439 ft | 485 kts | 143° |
| 2026-05-07 17:23 | -13.80201 | -76.16259 | 29603 ft | 487 kts | 144° |
| 2026-05-07 17:23 | -13.82901 | -76.14138 | 29758 ft | 489 kts | 143° |
| 2026-05-07 17:23 | -13.85609 | -76.12013 | 29921 ft | 491 kts | 143° |
| 2026-05-07 17:23 | -13.88326 | -76.09878 | 30080 ft | 492 kts | 143° |
| 2026-05-07 17:24 | -13.91048 | -76.07735 | 30228 ft | 494 kts | 143° |
| 2026-05-07 17:24 | -13.93773 | -76.05585 | 30457 ft | 493 kts | 144° |
| 2026-05-07 17:24 | -13.96491 | -76.03440 | 30683 ft | 492 kts | 144° |
| 2026-05-07 17:24 | -13.99205 | -76.01300 | 30910 ft | 491 kts | 144° |
| 2026-05-07 17:25 | -14.01915 | -75.99158 | 31142 ft | 490 kts | 144° |
| 2026-05-07 17:25 | -14.04582 | -75.97047 | 31365 ft | 490 kts | 144° |
| 2026-05-07 17:25 | -14.07280 | -75.94911 | 31584 ft | 489 kts | 144° |
| 2026-05-07 17:25 | -14.09974 | -75.92776 | 31822 ft | 488 kts | 144° |
| 2026-05-07 17:26 | -14.12703 | -75.90616 | 32050 ft | 488 kts | 144° |
| 2026-05-07 17:26 | -14.15389 | -75.88490 | 32279 ft | 487 kts | 144° |
| 2026-05-07 17:26 | -14.18071 | -75.86364 | 32499 ft | 486 kts | 144° |
| 2026-05-07 17:26 | -14.20751 | -75.84237 | 32724 ft | 486 kts | 144° |
| 2026-05-07 17:27 | -14.23426 | -75.82115 | 32953 ft | 485 kts | 144° |
| 2026-05-07 17:27 | -14.26065 | -75.80024 | 33184 ft | 484 kts | 145° |
| 2026-05-07 17:27 | -14.28770 | -75.77882 | 33425 ft | 484 kts | 145° |
| 2026-05-07 17:27 | -14.31433 | -75.75772 | 33671 ft | 483 kts | 145° |
| 2026-05-07 17:28 | -14.34094 | -75.73663 | 33908 ft | 482 kts | 145° |
| 2026-05-07 17:28 | -14.36751 | -75.71557 | 34115 ft | 481 kts | 145° |
| 2026-05-07 17:28 | -14.39403 | -75.69453 | 34294 ft | 481 kts | 145° |
| 2026-05-07 17:28 | -14.42056 | -75.67343 | 34474 ft | 481 kts | 145° |
| 2026-05-07 17:29 | -14.44705 | -75.65237 | 34650 ft | 481 kts | 145° |
| 2026-05-07 17:29 | -14.47353 | -75.63134 | 34831 ft | 481 kts | 145° |
| 2026-05-07 17:29 | -14.50008 | -75.61026 | 34986 ft | 481 kts | 145° |
| 2026-05-07 17:29 | -14.52654 | -75.58925 | 35040 ft | 479 kts | 145° |
| 2026-05-07 17:30 | -14.57929 | -75.54733 | 35043 ft | 478 kts | 145° |
| 2026-05-07 17:30 | -14.63191 | -75.50535 | 35043 ft | 478 kts | 145° |
| 2026-05-07 17:31 | -14.68457 | -75.46342 | 35046 ft | 478 kts | 145° |
| 2026-05-07 17:31 | -14.73697 | -75.42172 | 35045 ft | 478 kts | 145° |
| 2026-05-07 17:32 | -14.77218 | -75.39366 | 35037 ft | 478 kts | 145° |